createdAt,value
2018-07-09T02:06:57.849Z,55.60
2018-07-09T02:09:28.089Z,55.30
2018-07-09T02:11:58.385Z,53.10
2018-07-09T02:14:27.935Z,52.70
2018-07-09T02:16:57.188Z,50.80
2018-07-09T02:19:27.797Z,53.40
2018-07-09T02:21:59.776Z,52.00
2018-07-09T02:24:29.049Z,51.10
2018-07-09T02:26:58.514Z,51.00
2018-07-09T02:29:28.140Z,50.40
2018-07-09T02:32:05.062Z,49.90
2018-07-09T02:34:36.888Z,51.60
2018-07-09T02:37:08.223Z,52.10
2018-07-09T02:39:41.653Z,53.40
2018-07-09T02:42:15.678Z,53.10
2018-07-09T02:44:50.361Z,53.00
2018-07-09T02:47:20.495Z,52.50
2018-07-09T02:49:50.343Z,53.40
2018-07-09T02:52:21.214Z,56.00
2018-07-09T02:54:51.973Z,54.50
2018-07-09T02:57:22.726Z,55.10
2018-07-09T02:59:53.496Z,58.30
2018-07-09T03:02:30.147Z,58.10
2018-07-09T03:04:59.974Z,58.30
2018-07-09T03:07:29.939Z,59.40
2018-07-09T03:09:59.915Z,57.90
2018-07-09T03:12:34.409Z,54.70
2018-07-09T03:15:06.466Z,56.10
2018-07-09T03:17:36.738Z,56.70
2018-07-09T03:20:07.078Z,56.50
2018-07-09T03:22:37.800Z,57.10
2018-07-09T03:25:08.640Z,57.90
2018-07-09T03:27:40.606Z,57.00
2018-07-09T03:30:09.885Z,57.40
2018-07-09T03:32:53.631Z,57.70
2018-07-09T03:35:25.983Z,57.50
2018-07-09T03:37:56.282Z,57.10
2018-07-09T03:40:26.298Z,57.40
2018-07-09T03:42:56.536Z,56.20
2018-07-09T03:45:34.707Z,57.70
2018-07-09T03:48:05.996Z,58.40
2018-07-09T03:50:36.118Z,58.00
2018-07-09T03:53:05.865Z,58.60
2018-07-09T03:55:36.755Z,57.50
2018-07-09T03:58:06.826Z,57.30
2018-07-09T04:03:12.234Z,57.60
2018-07-09T04:05:43.360Z,57.00
2018-07-09T04:08:12.760Z,57.30
2018-07-09T04:10:42.847Z,57.10
2018-07-09T04:13:12.413Z,56.10
2018-07-09T04:15:42.339Z,56.20
2018-07-09T04:18:19.781Z,56.80
2018-07-09T04:20:55.971Z,57.40
2018-07-09T04:23:25.297Z,55.10
2018-07-09T04:26:00.885Z,53.40
2018-07-09T04:28:41.693Z,53.30
2018-07-09T04:31:14.652Z,52.70
2018-07-09T04:33:49.928Z,52.80
2018-07-09T04:36:22.472Z,53.60
2018-07-09T04:43:54.215Z,52.90
2018-07-09T04:48:55.578Z,50.80
2018-07-09T04:51:26.907Z,51.10
2018-07-09T04:53:56.266Z,51.40
2018-07-09T04:56:27.241Z,50.70
2018-07-09T04:58:58.644Z,49.70
2018-07-09T05:01:28.156Z,50.30
2018-07-09T05:06:26.283Z,48.40
2018-07-09T05:08:55.870Z,48.20
2018-07-09T05:11:26.025Z,48.40
2018-07-09T05:13:57.138Z,49.50
2018-07-09T05:16:26.371Z,47.60
2018-07-09T05:18:55.887Z,48.80
2018-07-09T05:21:37.502Z,48.80
2018-07-09T05:24:07.712Z,49.50
2018-07-09T05:26:36.918Z,48.30
2018-07-09T05:29:06.273Z,47.50
2018-07-09T05:31:36.506Z,49.30
2018-07-09T05:34:06.114Z,45.30
2018-07-09T05:36:35.318Z,44.80
2018-07-09T05:39:05.586Z,45.40
2018-07-09T05:41:34.900Z,45.20
2018-07-09T05:44:04.151Z,45.10
2018-07-09T05:46:34.030Z,42.90
2018-07-09T05:49:03.892Z,43.00
2018-07-09T05:51:33.425Z,44.30
2018-07-09T05:54:02.711Z,43.70
2018-07-09T05:56:31.955Z,42.30
2018-07-09T05:59:01.212Z,42.90
2018-07-09T06:01:31.500Z,41.20
2018-07-09T06:04:01.183Z,41.00
2018-07-09T06:06:31.075Z,41.40
2018-07-09T06:09:02.587Z,38.50
2018-07-09T06:11:32.239Z,38.60
2018-07-09T06:14:02.635Z,40.60
2018-07-09T06:16:33.291Z,40.10
2018-07-09T06:19:05.419Z,37.90
2018-07-09T06:21:39.583Z,37.00
2018-07-09T06:24:09.136Z,34.70
2018-07-09T06:26:40.187Z,33.80
2018-07-09T06:29:11.072Z,30.90
2018-07-09T06:31:40.703Z,30.60
2018-07-09T06:34:09.939Z,31.20
2018-07-09T06:36:41.819Z,31.90
2018-07-09T06:39:12.041Z,31.40
2018-07-09T06:41:41.406Z,29.70
2018-07-09T06:44:11.111Z,29.40
2018-07-09T06:46:40.934Z,28.60
2018-07-09T06:49:10.164Z,29.70
2018-07-09T06:51:41.197Z,27.80
2018-07-09T06:54:14.184Z,27.10
2018-07-09T06:56:44.332Z,27.90
2018-07-09T06:59:14.325Z,25.90
2018-07-09T07:04:12.488Z,26.30
2018-07-09T07:06:42.155Z,26.40
2018-07-09T07:09:13.111Z,26.40
2018-07-09T07:11:42.432Z,25.30
2018-07-09T07:14:11.712Z,26.00
2018-07-09T07:16:40.903Z,26.40
2018-07-09T07:19:10.185Z,26.70
2018-07-09T07:21:39.847Z,26.10
2018-07-09T07:24:09.601Z,26.10
2018-07-09T07:26:38.811Z,26.10
2018-07-09T07:29:08.125Z,26.60
2018-07-09T07:31:41.541Z,25.90
2018-07-09T07:34:10.778Z,25.50
2018-07-09T07:36:43.371Z,26.70
2018-07-09T07:39:12.629Z,26.40
2018-07-09T07:41:42.032Z,26.60
2018-07-09T07:44:11.427Z,24.40
2018-07-09T07:46:40.670Z,24.80
2018-07-09T07:49:10.229Z,25.20
2018-07-09T07:51:45.441Z,24.50
2018-07-09T07:54:14.723Z,24.90
2018-07-09T07:59:14.551Z,24.70
2018-07-09T08:01:44.205Z,26.10
2018-07-09T08:04:14.568Z,26.40
2018-07-09T08:06:43.813Z,26.80
2018-07-09T08:09:14.141Z,24.50
2018-07-09T08:11:49.002Z,27.30
2018-07-09T08:14:15.399Z,27.20
2018-07-09T08:16:44.740Z,25.50
2018-07-09T08:19:13.967Z,25.90
2018-07-09T08:21:43.789Z,24.20
2018-07-09T08:24:13.047Z,27.10
2018-07-09T08:29:12.107Z,24.60
2018-07-09T08:31:41.355Z,24.30
2018-07-09T08:34:11.012Z,24.90
2018-07-09T08:36:40.934Z,24.90
2018-07-09T08:39:11.408Z,24.20
2018-07-09T08:41:40.783Z,24.50
2018-07-09T08:44:10.646Z,24.80
2018-07-09T08:46:40.925Z,24.40
2018-07-09T08:49:10.309Z,24.50
2018-07-09T08:51:39.679Z,25.50
2018-07-09T08:54:09.696Z,25.00
2018-07-09T08:56:39.295Z,24.50
2018-07-09T08:59:10.596Z,23.80
2018-07-09T09:01:39.997Z,24.40
2018-07-09T09:04:09.330Z,24.10
2018-07-09T09:06:39.035Z,24.60
2018-07-09T09:09:08.492Z,25.40
2018-07-09T09:11:37.979Z,24.10
2018-07-09T09:14:08.179Z,23.90
2018-07-09T09:16:37.555Z,23.60
2018-07-09T09:19:07.866Z,23.40
2018-07-09T09:21:39.039Z,23.30
2018-07-09T09:24:08.711Z,23.00
2018-07-09T09:26:37.969Z,22.90
2018-07-09T09:29:07.979Z,22.80
2018-07-09T09:31:38.414Z,21.90
2018-07-09T09:34:08.173Z,22.20
2018-07-09T09:36:37.734Z,22.20
2018-07-09T09:39:08.139Z,22.80
2018-07-09T09:41:37.745Z,22.10
2018-07-09T09:44:07.180Z,22.30
2018-07-09T09:46:36.594Z,22.70
2018-07-09T09:49:05.877Z,22.10
2018-07-09T09:54:05.619Z,21.10
2018-07-09T09:56:36.057Z,21.20
2018-07-09T10:01:35.239Z,20.30
2018-07-09T10:04:04.590Z,21.30
2018-07-09T10:06:35.291Z,21.40
2018-07-09T10:09:09.515Z,21.30
2018-07-09T10:11:39.968Z,20.50
2018-07-09T10:14:09.256Z,22.10
2018-07-09T10:16:38.814Z,21.80
2018-07-09T10:19:08.130Z,20.70
2018-07-09T10:21:37.695Z,21.50
2018-07-09T10:24:07.032Z,21.40
2018-07-09T10:26:36.222Z,21.40
2018-07-09T10:29:06.658Z,19.70
2018-07-09T10:31:35.994Z,18.70
2018-07-09T10:34:06.180Z,18.00
2018-07-09T10:36:35.675Z,17.80
2018-07-09T10:39:05.654Z,17.60
2018-07-09T10:41:35.038Z,18.40
2018-07-09T10:44:05.631Z,17.20
2018-07-09T10:46:34.938Z,18.00
2018-07-09T10:49:04.220Z,16.10
2018-07-09T10:51:39.549Z,16.60
2018-07-09T10:54:09.819Z,17.00
2018-07-09T10:56:41.336Z,16.90
2018-07-09T10:59:10.558Z,17.50
2018-07-09T11:01:39.926Z,16.80
2018-07-09T11:04:09.151Z,17.30
2018-07-09T11:06:38.351Z,17.90
2018-07-09T11:14:17.118Z,14.60
2018-07-09T11:19:20.218Z,14.10
2018-07-09T11:21:53.696Z,12.40
2018-07-09T11:24:24.193Z,10.70
2018-07-09T11:30:00.759Z,12.60
2018-07-09T11:35:01.460Z,9.50
2018-07-09T11:37:31.426Z,10.60
2018-07-09T11:40:02.738Z,10.90
2018-07-09T11:42:35.003Z,11.70
2018-07-09T11:45:05.106Z,12.10
2018-07-09T11:47:37.007Z,8.20
2018-07-09T11:50:06.813Z,8.30
2018-07-09T11:52:40.160Z,9.90
2018-07-09T11:55:09.642Z,11.60
2018-07-09T11:57:39.555Z,11.90
2018-07-09T12:00:09.053Z,11.90
2018-07-09T12:02:38.763Z,11.60
2018-07-09T12:05:09.255Z,12.70
2018-07-09T12:07:40.068Z,12.70
2018-07-09T12:10:09.669Z,12.20
2018-07-09T12:12:40.068Z,12.60
2018-07-09T12:15:09.716Z,9.90
2018-07-09T12:17:39.116Z,10.40
2018-07-09T12:20:09.413Z,11.00
2018-07-09T12:22:39.673Z,11.30
2018-07-09T12:25:09.108Z,12.20
2018-07-09T12:27:38.384Z,11.00
2018-07-09T12:30:10.607Z,10.90
2018-07-09T12:35:09.591Z,10.70
2018-07-09T12:37:40.014Z,8.80
2018-07-09T12:40:10.823Z,9.30
2018-07-09T12:42:42.045Z,9.80
2018-07-09T12:45:11.568Z,10.40
2018-07-09T12:47:40.979Z,10.20
2018-07-09T12:50:11.894Z,8.80
2018-07-09T12:52:41.288Z,9.50
2018-07-09T12:55:11.029Z,9.30
2018-07-09T12:57:40.336Z,9.40
2018-07-09T13:00:10.907Z,9.60
2018-07-09T13:02:40.352Z,9.00
2018-07-09T13:05:10.287Z,9.30
2018-07-09T13:07:40.166Z,9.30
2018-07-09T13:10:09.424Z,6.70
2018-07-09T13:15:11.457Z,7.30
2018-07-09T13:17:47.747Z,7.90
2018-07-09T13:20:17.033Z,8.40
2018-07-09T13:22:46.234Z,8.20
2018-07-09T13:25:15.604Z,7.80
2018-07-09T13:27:44.852Z,6.90
2018-07-09T13:30:14.278Z,6.50
2018-07-09T13:32:44.097Z,6.90
2018-07-09T13:35:14.412Z,5.30
2018-07-09T13:37:43.748Z,3.80
2018-07-09T13:40:15.316Z,3.40
2018-07-09T13:42:44.655Z,3.90
2018-07-09T13:45:15.891Z,1.40
2018-07-09T13:47:45.569Z,1.00
2018-07-09T13:50:15.600Z,2.00
2018-07-09T13:52:46.095Z,2.50
2018-07-09T13:57:46.597Z,4.30
2018-07-09T14:00:15.981Z,3.60
2018-07-09T14:02:45.222Z,1.40
2018-07-09T14:05:14.559Z,1.00
2018-07-09T14:07:44.779Z,1.40
2018-07-09T14:10:14.178Z,1.00
2018-07-09T14:12:44.046Z,1.00
2018-07-09T14:15:15.285Z,1.00
2018-07-09T14:17:44.842Z,1.00
2018-07-09T14:20:29.607Z,1.00
2018-07-09T14:22:59.300Z,1.00
2018-07-09T14:25:28.752Z,1.00
2018-07-09T14:27:59.577Z,1.00
2018-07-09T14:30:28.887Z,1.00
2018-07-09T14:32:58.964Z,1.00
2018-07-09T14:35:28.366Z,1.00
2018-07-09T14:37:59.692Z,1.00
2018-07-09T14:40:29.049Z,1.00
2018-07-09T14:42:59.224Z,1.00
2018-07-09T14:45:28.948Z,1.00
2018-07-09T14:47:58.292Z,1.00
2018-07-09T14:50:27.465Z,1.00
2018-07-09T14:52:56.833Z,1.00
2018-07-09T14:55:26.504Z,1.00
2018-07-09T14:57:55.733Z,1.00
2018-07-09T15:00:29.122Z,1.00
2018-07-09T15:02:58.297Z,1.00
2018-07-09T15:05:27.502Z,1.00
2018-07-09T15:07:56.689Z,1.00
2018-07-09T15:10:26.089Z,1.00
2018-07-09T15:12:56.337Z,1.00
2018-07-09T15:15:25.640Z,1.00
2018-07-09T15:17:54.906Z,1.00
2018-07-09T15:20:25.192Z,1.00
2018-07-09T15:22:54.464Z,1.00
2018-07-09T15:25:23.658Z,1.00
2018-07-09T15:27:53.314Z,1.00
2018-07-09T15:30:24.126Z,1.00
2018-07-09T15:32:53.372Z,1.00
2018-07-09T15:37:52.339Z,1.00
2018-07-09T15:40:24.812Z,1.00
2018-07-09T15:45:24.402Z,1.00
2018-07-09T15:47:53.640Z,1.00
2018-07-09T15:50:24.258Z,1.00
2018-07-09T15:52:53.683Z,1.00
2018-07-09T15:55:25.789Z,1.00
2018-07-09T15:57:55.884Z,1.00
2018-07-09T16:00:27.445Z,1.00
2018-07-09T16:05:28.177Z,1.00
2018-07-09T16:07:57.865Z,1.00
2018-07-09T16:10:28.929Z,1.00
2018-07-09T16:12:58.941Z,1.00
2018-07-09T16:15:30.519Z,1.00
2018-07-09T16:18:00.614Z,1.00
2018-07-09T16:20:29.832Z,1.00
2018-07-09T16:22:59.599Z,1.00
2018-07-09T16:27:57.608Z,1.00
2018-07-09T16:30:27.194Z,1.00
2018-07-09T16:32:56.369Z,1.00
2018-07-09T16:35:25.624Z,1.00
2018-07-09T16:37:55.410Z,1.00
2018-07-09T16:40:24.678Z,1.00
2018-07-09T16:42:53.856Z,1.00
2018-07-09T16:45:23.709Z,1.00
2018-07-09T16:47:52.897Z,1.00
2018-07-09T16:50:22.718Z,1.00
2018-07-09T16:52:51.982Z,1.00
2018-07-09T16:55:21.591Z,1.00
2018-07-09T16:57:51.009Z,1.00
2018-07-09T17:00:20.344Z,1.00
2018-07-09T17:02:49.556Z,1.00
2018-07-09T17:05:18.822Z,1.00
2018-07-09T17:07:48.046Z,1.00
2018-07-09T17:10:17.848Z,1.00
2018-07-09T17:12:47.051Z,1.00
2018-07-09T17:15:16.935Z,1.00
2018-07-09T17:17:46.116Z,1.00
2018-07-09T17:20:16.082Z,1.00
2018-07-09T17:22:45.280Z,1.00
2018-07-09T17:25:16.711Z,1.00
2018-07-09T17:27:45.896Z,1.00
2018-07-09T17:30:15.233Z,1.00
2018-07-09T17:32:45.207Z,1.00
2018-07-09T17:35:14.831Z,1.00
2018-07-09T17:37:44.133Z,1.00
2018-07-09T17:45:10.995Z,1.00
2018-07-09T17:47:40.241Z,1.00
2018-07-09T17:50:09.945Z,1.00
2018-07-09T17:55:08.472Z,1.00
2018-07-09T17:57:38.291Z,2.30
2018-07-09T18:00:07.641Z,2.30
2018-07-09T18:02:50.055Z,3.20
2018-07-09T18:05:20.897Z,3.90
2018-07-09T18:07:50.251Z,3.70
2018-07-09T18:10:19.544Z,4.20
2018-07-09T18:12:48.789Z,4.80
2018-07-09T18:15:18.024Z,5.50
2018-07-09T18:17:47.645Z,5.70
2018-07-09T18:20:16.975Z,6.00
2018-07-09T18:25:48.637Z,6.30
2018-07-09T18:28:18.663Z,6.70
2018-07-09T18:30:48.798Z,7.30
2018-07-09T18:33:18.953Z,7.20
2018-07-09T18:35:48.356Z,7.40
2018-07-09T18:38:17.749Z,7.90
2018-07-09T18:40:49.284Z,7.80
2018-07-09T18:43:18.724Z,8.00
2018-07-09T18:45:48.051Z,8.00
2018-07-09T18:48:17.841Z,8.30
2018-07-09T18:50:47.687Z,8.60
2018-07-09T18:53:16.930Z,8.90
2018-07-09T18:55:46.898Z,9.80
2018-07-09T18:58:16.311Z,9.50
2018-07-09T19:00:46.760Z,10.10
2018-07-09T19:03:16.024Z,10.40
2018-07-09T19:05:53.756Z,9.60
2018-07-09T19:08:23.479Z,9.90
2018-07-09T19:10:53.145Z,10.10
2018-07-09T19:15:52.895Z,10.00
2018-07-09T19:19:33.194Z,10.40
2018-07-09T19:24:33.672Z,10.90
2018-07-09T19:27:07.635Z,11.00
2018-07-09T19:29:36.284Z,11.00
2018-07-09T19:32:04.385Z,11.00
2018-07-09T19:34:32.523Z,11.20
2018-07-09T19:37:00.756Z,10.90
2018-07-09T19:39:29.689Z,12.10
2018-07-09T19:41:58.888Z,11.90
2018-07-09T19:44:26.946Z,12.20
2018-07-09T19:46:54.948Z,11.40
2018-07-09T19:49:25.908Z,12.80
2018-07-09T19:51:54.996Z,15.80
2018-07-09T19:54:23.280Z,17.60
2018-07-09T19:56:51.992Z,18.50
2018-07-09T20:01:48.202Z,19.20
2018-07-09T20:04:17.065Z,19.80
2018-07-09T20:09:25.226Z,21.00
2018-07-09T20:11:55.290Z,21.50
2018-07-09T20:14:30.246Z,22.00
2018-07-09T20:19:32.812Z,20.60
2018-07-09T20:22:00.923Z,20.00
2018-07-09T20:24:31.314Z,18.00
2018-07-09T20:26:59.347Z,16.10
2018-07-09T20:29:27.327Z,15.10
2018-07-09T20:31:56.275Z,14.60
2018-07-09T20:34:24.425Z,15.40
2018-07-09T20:36:53.508Z,15.80
2018-07-09T20:39:21.782Z,15.80
2018-07-09T20:41:55.930Z,15.80
2018-07-09T20:44:23.960Z,18.10
2018-07-09T20:46:53.923Z,18.60
2018-07-09T20:49:21.988Z,18.70
2018-07-09T20:54:20.488Z,21.40
2018-07-09T20:59:16.768Z,21.50
2018-07-09T21:01:45.112Z,21.40
2018-07-09T21:04:18.300Z,22.00
2018-07-09T21:06:46.456Z,22.90
2018-07-09T21:09:14.469Z,22.90
2018-07-09T21:14:17.347Z,24.00
2018-07-09T21:16:47.522Z,24.20
2018-07-09T21:21:43.970Z,25.40
2018-07-09T21:24:12.882Z,25.60
2018-07-09T21:29:09.086Z,25.20
2018-07-09T21:31:40.902Z,25.10
2018-07-09T21:34:09.676Z,23.80
2018-07-09T21:36:37.675Z,24.40
2018-07-09T21:39:05.634Z,24.10
2018-07-09T21:41:33.628Z,24.40
2018-07-09T21:44:01.930Z,25.10
2018-07-09T21:48:58.096Z,25.70
2018-07-09T21:51:26.099Z,25.70
2018-07-09T21:53:54.095Z,26.90
2018-07-09T21:56:22.118Z,26.10
2018-07-09T21:58:50.077Z,27.40
2018-07-09T22:01:18.183Z,26.80
2018-07-09T22:03:46.171Z,27.10
2018-07-09T22:06:14.149Z,27.40
2018-07-09T22:08:42.104Z,26.90
2018-07-09T22:11:10.399Z,27.30
2018-07-09T22:13:39.024Z,28.00
2018-07-09T22:18:35.190Z,28.00
2018-07-09T22:21:04.196Z,27.80
2018-07-09T22:23:32.206Z,28.40
2018-07-09T22:26:00.176Z,29.00
2018-07-09T22:30:58.402Z,29.60
2018-07-09T22:33:30.320Z,29.10
2018-07-09T22:35:59.537Z,28.80
2018-07-09T22:38:28.733Z,29.00
2018-07-09T22:43:39.053Z,31.10
2018-07-09T22:46:08.342Z,30.70
2018-07-09T22:48:37.940Z,30.60
2018-07-09T22:51:08.403Z,31.10
2018-07-09T22:53:37.886Z,31.60
2018-07-09T22:56:10.042Z,31.60
2018-07-09T22:58:40.771Z,32.50
2018-07-09T23:01:10.147Z,31.50
2018-07-09T23:06:08.073Z,31.90
2018-07-09T23:08:37.292Z,31.40
2018-07-09T23:11:22.357Z,31.30
2018-07-09T23:17:10.014Z,30.80
2018-07-09T23:20:57.616Z,32.90
2018-07-09T23:23:25.604Z,33.50
2018-07-09T23:25:53.554Z,33.70
2018-07-09T23:28:21.558Z,34.30
2018-07-09T23:30:49.530Z,35.60
2018-07-09T23:33:17.515Z,36.10
2018-07-09T23:35:49.224Z,36.10
2018-07-09T23:38:17.480Z,35.70
2018-07-09T23:40:45.550Z,35.20
2018-07-09T23:43:13.758Z,35.80
2018-07-09T23:45:41.798Z,35.90
2018-07-09T23:48:09.950Z,36.20
2018-07-09T23:50:38.199Z,36.10
2018-07-09T23:53:06.176Z,35.30
2018-07-09T23:55:36.390Z,35.60
